sensor_id;sensor_type;location;lat;lon;timestamp;P1;durP1;ratioP1;P2;durP2;ratioP2
77078;SDS011;66004;55.096;38.760;2024-03-08T00:02:13;3.33;;;1.30;;
77078;SDS011;66004;55.096;38.760;2024-03-08T00:04:39;5.45;;;1.73;;
77078;SDS011;66004;55.096;38.760;2024-03-08T00:07:04;5.80;;;1.80;;
77078;SDS011;66004;55.096;38.760;2024-03-08T00:09:31;3.80;;;2.00;;
77078;SDS011;66004;55.096;38.760;2024-03-08T00:11:56;4.72;;;1.55;;
77078;SDS011;66004;55.096;38.760;2024-03-08T00:14:22;4.57;;;1.70;;
77078;SDS011;66004;55.096;38.760;2024-03-08T00:16:47;8.02;;;1.70;;
77078;SDS011;66004;55.096;38.760;2024-03-08T00:19:13;10.10;;;1.80;;
77078;SDS011;66004;55.096;38.760;2024-03-08T00:21:38;3.15;;;1.58;;
77078;SDS011;66004;55.096;38.760;2024-03-08T00:24:04;7.97;;;2.10;;
77078;SDS011;66004;55.096;38.760;2024-03-08T00:26:30;4.28;;;1.77;;
77078;SDS011;66004;55.096;38.760;2024-03-08T00:28:55;3.85;;;2.13;;
77078;SDS011;66004;55.096;38.760;2024-03-08T00:31:21;5.22;;;1.92;;
77078;SDS011;66004;55.096;38.760;2024-03-08T00:33:46;14.20;;;1.90;;
77078;SDS011;66004;55.096;38.760;2024-03-08T00:36:12;4.50;;;1.90;;
77078;SDS011;66004;55.096;38.760;2024-03-08T00:38:38;3.25;;;1.48;;
77078;SDS011;66004;55.096;38.760;2024-03-08T00:41:04;4.65;;;2.20;;
77078;SDS011;66004;55.096;38.760;2024-03-08T00:43:29;8.07;;;2.78;;
77078;SDS011;66004;55.096;38.760;2024-03-08T00:45:58;7.22;;;2.55;;
77078;SDS011;66004;55.096;38.760;2024-03-08T00:48:23;7.97;;;2.38;;
77078;SDS011;66004;55.096;38.760;2024-03-08T00:50:49;9.15;;;2.08;;
77078;SDS011;66004;55.096;38.760;2024-03-08T00:53:15;3.72;;;1.92;;
77078;SDS011;66004;55.096;38.760;2024-03-08T00:55:40;3.20;;;1.60;;
77078;SDS011;66004;55.096;38.760;2024-03-08T00:58:06;7.25;;;2.15;;
77078;SDS011;66004;55.096;38.760;2024-03-08T01:00:31;6.43;;;2.13;;
77078;SDS011;66004;55.096;38.760;2024-03-08T01:02:57;5.65;;;2.40;;
77078;SDS011;66004;55.096;38.760;2024-03-08T01:05:23;8.88;;;2.10;;
77078;SDS011;66004;55.096;38.760;2024-03-08T01:07:49;6.13;;;2.58;;
77078;SDS011;66004;55.096;38.760;2024-03-08T01:10:15;6.50;;;2.13;;
77078;SDS011;66004;55.096;38.760;2024-03-08T01:12:41;5.80;;;1.90;;
77078;SDS011;66004;55.096;38.760;2024-03-08T01:15:08;4.40;;;2.00;;
77078;SDS011;66004;55.096;38.760;2024-03-08T01:17:35;4.72;;;2.15;;
77078;SDS011;66004;55.096;38.760;2024-03-08T01:20:01;3.80;;;1.27;;
77078;SDS011;66004;55.096;38.760;2024-03-08T01:22:27;6.72;;;2.03;;
77078;SDS011;66004;55.096;38.760;2024-03-08T01:24:54;13.00;;;2.47;;
77078;SDS011;66004;55.096;38.760;2024-03-08T01:27:20;5.20;;;2.33;;
77078;SDS011;66004;55.096;38.760;2024-03-08T01:29:46;3.97;;;1.83;;
77078;SDS011;66004;55.096;38.760;2024-03-08T01:32:11;5.72;;;2.22;;
77078;SDS011;66004;55.096;38.760;2024-03-08T01:34:37;7.68;;;2.75;;
77078;SDS011;66004;55.096;38.760;2024-03-08T01:37:02;4.63;;;2.28;;
77078;SDS011;66004;55.096;38.760;2024-03-08T01:39:28;6.60;;;2.53;;
77078;SDS011;66004;55.096;38.760;2024-03-08T01:41:53;5.95;;;2.10;;
77078;SDS011;66004;55.096;38.760;2024-03-08T01:44:19;13.07;;;3.75;;
77078;SDS011;66004;55.096;38.760;2024-03-08T01:46:45;5.00;;;2.10;;
77078;SDS011;66004;55.096;38.760;2024-03-08T01:49:12;6.88;;;2.70;;
77078;SDS011;66004;55.096;38.760;2024-03-08T01:51:40;8.32;;;3.00;;
77078;SDS011;66004;55.096;38.760;2024-03-08T01:54:07;10.25;;;3.53;;
77078;SDS011;66004;55.096;38.760;2024-03-08T01:56:38;7.97;;;2.75;;
77078;SDS011;66004;55.096;38.760;2024-03-08T01:59:04;7.60;;;2.80;;
77078;SDS011;66004;55.096;38.760;2024-03-08T02:01:32;5.60;;;2.60;;
77078;SDS011;66004;55.096;38.760;2024-03-08T02:03:59;5.75;;;3.20;;
77078;SDS011;66004;55.096;38.760;2024-03-08T02:06:24;4.18;;;1.92;;
77078;SDS011;66004;55.096;38.760;2024-03-08T02:08:50;9.00;;;3.28;;
77078;SDS011;66004;55.096;38.760;2024-03-08T02:11:16;13.02;;;5.03;;
77078;SDS011;66004;55.096;38.760;2024-03-08T02:13:44;12.65;;;4.65;;
77078;SDS011;66004;55.096;38.760;2024-03-08T02:16:09;11.43;;;4.25;;
77078;SDS011;66004;55.096;38.760;2024-03-08T02:18:35;14.63;;;3.88;;
77078;SDS011;66004;55.096;38.760;2024-03-08T02:21:02;7.68;;;2.88;;
77078;SDS011;66004;55.096;38.760;2024-03-08T02:23:28;6.25;;;3.03;;
77078;SDS011;66004;55.096;38.760;2024-03-08T02:25:55;8.65;;;3.58;;
77078;SDS011;66004;55.096;38.760;2024-03-08T02:28:21;4.25;;;1.95;;
77078;SDS011;66004;55.096;38.760;2024-03-08T02:30:48;7.85;;;3.50;;
77078;SDS011;66004;55.096;38.760;2024-03-08T02:33:14;6.70;;;3.15;;
77078;SDS011;66004;55.096;38.760;2024-03-08T02:35:44;7.35;;;2.78;;
77078;SDS011;66004;55.096;38.760;2024-03-08T02:38:11;2.75;;;1.88;;
77078;SDS011;66004;55.096;38.760;2024-03-08T02:40:38;7.20;;;2.78;;
77078;SDS011;66004;55.096;38.760;2024-03-08T02:43:03;6.70;;;3.30;;
77078;SDS011;66004;55.096;38.760;2024-03-08T02:45:30;10.02;;;3.92;;
77078;SDS011;66004;55.096;38.760;2024-03-08T02:47:56;9.32;;;4.60;;
77078;SDS011;66004;55.096;38.760;2024-03-08T02:50:21;10.65;;;4.13;;
77078;SDS011;66004;55.096;38.760;2024-03-08T02:52:47;8.25;;;3.60;;
77078;SDS011;66004;55.096;38.760;2024-03-08T02:55:13;6.20;;;2.65;;
77078;SDS011;66004;55.096;38.760;2024-03-08T02:57:42;7.68;;;3.65;;
77078;SDS011;66004;55.096;38.760;2024-03-08T03:00:12;9.18;;;3.70;;
77078;SDS011;66004;55.096;38.760;2024-03-08T03:02:38;7.75;;;3.67;;
77078;SDS011;66004;55.096;38.760;2024-03-08T03:05:05;9.23;;;4.05;;
77078;SDS011;66004;55.096;38.760;2024-03-08T03:07:34;8.85;;;4.32;;
77078;SDS011;66004;55.096;38.760;2024-03-08T03:10:00;7.28;;;2.83;;
77078;SDS011;66004;55.096;38.760;2024-03-08T03:12:29;6.72;;;2.88;;
77078;SDS011;66004;55.096;38.760;2024-03-08T03:14:55;9.63;;;4.47;;
77078;SDS011;66004;55.096;38.760;2024-03-08T03:17:24;2.22;;;1.40;;
77078;SDS011;66004;55.096;38.760;2024-03-08T03:19:50;6.90;;;3.03;;
77078;SDS011;66004;55.096;38.760;2024-03-08T03:22:19;5.68;;;3.03;;
77078;SDS011;66004;55.096;38.760;2024-03-08T03:24:45;7.65;;;2.80;;
77078;SDS011;66004;55.096;38.760;2024-03-08T03:27:14;10.52;;;3.33;;
77078;SDS011;66004;55.096;38.760;2024-03-08T03:29:40;7.30;;;2.70;;
77078;SDS011;66004;55.096;38.760;2024-03-08T03:32:14;7.18;;;2.35;;
77078;SDS011;66004;55.096;38.760;2024-03-08T03:34:40;3.22;;;1.27;;
77078;SDS011;66004;55.096;38.760;2024-03-08T03:39:34;0.98;;;0.45;;
77078;SDS011;66004;55.096;38.760;2024-03-08T03:42:02;3.95;;;2.10;;
77078;SDS011;66004;55.096;38.760;2024-03-08T03:44:28;8.90;;;3.83;;
77078;SDS011;66004;55.096;38.760;2024-03-08T03:46:54;5.40;;;2.63;;
77078;SDS011;66004;55.096;38.760;2024-03-08T03:49:19;7.22;;;4.00;;
77078;SDS011;66004;55.096;38.760;2024-03-08T03:51:45;10.40;;;3.40;;
77078;SDS011;66004;55.096;38.760;2024-03-08T03:54:11;7.50;;;3.25;;
77078;SDS011;66004;55.096;38.760;2024-03-08T03:56:37;11.40;;;4.95;;
77078;SDS011;66004;55.096;38.760;2024-03-08T03:59:05;6.32;;;2.70;;
77078;SDS011;66004;55.096;38.760;2024-03-08T04:03:57;5.05;;;2.85;;
77078;SDS011;66004;55.096;38.760;2024-03-08T04:06:22;7.63;;;3.10;;
77078;SDS011;66004;55.096;38.760;2024-03-08T04:08:49;7.40;;;2.65;;
77078;SDS011;66004;55.096;38.760;2024-03-08T04:11:15;10.25;;;3.17;;
77078;SDS011;66004;55.096;38.760;2024-03-08T04:13:42;11.82;;;4.63;;
77078;SDS011;66004;55.096;38.760;2024-03-08T04:16:08;9.20;;;3.80;;
77078;SDS011;66004;55.096;38.760;2024-03-08T04:18:34;11.05;;;3.95;;
77078;SDS011;66004;55.096;38.760;2024-03-08T04:21:05;8.25;;;4.28;;
77078;SDS011;66004;55.096;38.760;2024-03-08T04:23:34;7.85;;;3.60;;
77078;SDS011;66004;55.096;38.760;2024-03-08T04:26:02;7.85;;;3.53;;
77078;SDS011;66004;55.096;38.760;2024-03-08T04:28:31;8.60;;;3.22;;
77078;SDS011;66004;55.096;38.760;2024-03-08T04:30:57;10.32;;;4.40;;
77078;SDS011;66004;55.096;38.760;2024-03-08T04:33:22;8.25;;;3.15;;
77078;SDS011;66004;55.096;38.760;2024-03-08T04:35:48;11.63;;;3.70;;
77078;SDS011;66004;55.096;38.760;2024-03-08T04:38:14;6.75;;;3.13;;
77078;SDS011;66004;55.096;38.760;2024-03-08T04:40:40;8.00;;;3.30;;
77078;SDS011;66004;55.096;38.760;2024-03-08T04:43:06;8.52;;;3.30;;
77078;SDS011;66004;55.096;38.760;2024-03-08T04:45:33;5.95;;;3.05;;
77078;SDS011;66004;55.096;38.760;2024-03-08T04:47:59;4.75;;;2.40;;
77078;SDS011;66004;55.096;38.760;2024-03-08T04:50:24;5.00;;;1.50;;
77078;SDS011;66004;55.096;38.760;2024-03-08T04:52:50;12.85;;;5.03;;
77078;SDS011;66004;55.096;38.760;2024-03-08T04:55:15;8.73;;;4.10;;
77078;SDS011;66004;55.096;38.760;2024-03-08T04:57:41;11.60;;;5.00;;
77078;SDS011;66004;55.096;38.760;2024-03-08T05:00:09;8.95;;;4.30;;
77078;SDS011;66004;55.096;38.760;2024-03-08T05:02:39;12.00;;;4.22;;
77078;SDS011;66004;55.096;38.760;2024-03-08T05:05:07;2.20;;;1.55;;
77078;SDS011;66004;55.096;38.760;2024-03-08T05:07:36;5.13;;;3.17;;
77078;SDS011;66004;55.096;38.760;2024-03-08T05:10:02;7.63;;;3.80;;
77078;SDS011;66004;55.096;38.760;2024-03-08T05:12:28;8.95;;;4.07;;
77078;SDS011;66004;55.096;38.760;2024-03-08T05:14:54;11.65;;;4.32;;
77078;SDS011;66004;55.096;38.760;2024-03-08T05:19:45;4.43;;;2.75;;
77078;SDS011;66004;55.096;38.760;2024-03-08T05:22:11;11.93;;;5.18;;
77078;SDS011;66004;55.096;38.760;2024-03-08T05:24:36;6.90;;;2.67;;
77078;SDS011;66004;55.096;38.760;2024-03-08T05:27:02;7.80;;;3.00;;
77078;SDS011;66004;55.096;38.760;2024-03-08T05:29:28;14.27;;;7.05;;
77078;SDS011;66004;55.096;38.760;2024-03-08T05:31:54;7.88;;;3.65;;
77078;SDS011;66004;55.096;38.760;2024-03-08T05:34:21;6.25;;;3.20;;
77078;SDS011;66004;55.096;38.760;2024-03-08T05:36:48;8.73;;;4.28;;
77078;SDS011;66004;55.096;38.760;2024-03-08T05:39:16;10.43;;;4.53;;
77078;SDS011;66004;55.096;38.760;2024-03-08T05:44:09;6.43;;;3.78;;
77078;SDS011;66004;55.096;38.760;2024-03-08T05:46:35;14.90;;;3.92;;
77078;SDS011;66004;55.096;38.760;2024-03-08T05:49:04;8.10;;;4.32;;
77078;SDS011;66004;55.096;38.760;2024-03-08T05:51:34;7.45;;;3.65;;
77078;SDS011;66004;55.096;38.760;2024-03-08T05:54:01;11.32;;;3.65;;
77078;SDS011;66004;55.096;38.760;2024-03-08T05:56:28;5.43;;;2.88;;
77078;SDS011;66004;55.096;38.760;2024-03-08T05:58:54;8.77;;;3.22;;
77078;SDS011;66004;55.096;38.760;2024-03-08T06:01:19;6.30;;;3.35;;
77078;SDS011;66004;55.096;38.760;2024-03-08T06:03:50;4.40;;;2.25;;
77078;SDS011;66004;55.096;38.760;2024-03-08T06:06:16;6.15;;;3.22;;
77078;SDS011;66004;55.096;38.760;2024-03-08T06:08:43;8.35;;;3.47;;
77078;SDS011;66004;55.096;38.760;2024-03-08T06:11:09;11.70;;;4.95;;
77078;SDS011;66004;55.096;38.760;2024-03-08T06:13:35;7.07;;;2.95;;
77078;SDS011;66004;55.096;38.760;2024-03-08T06:16:01;9.95;;;3.85;;
77078;SDS011;66004;55.096;38.760;2024-03-08T06:18:30;12.13;;;4.50;;
77078;SDS011;66004;55.096;38.760;2024-03-08T06:20:56;10.48;;;4.75;;
77078;SDS011;66004;55.096;38.760;2024-03-08T06:23:22;9.63;;;4.38;;
77078;SDS011;66004;55.096;38.760;2024-03-08T06:25:48;10.75;;;4.65;;
77078;SDS011;66004;55.096;38.760;2024-03-08T06:28:13;8.93;;;3.25;;
77078;SDS011;66004;55.096;38.760;2024-03-08T06:30:39;17.20;;;5.30;;
77078;SDS011;66004;55.096;38.760;2024-03-08T06:33:07;6.82;;;4.13;;
77078;SDS011;66004;55.096;38.760;2024-03-08T06:35:33;8.43;;;3.45;;
77078;SDS011;66004;55.096;38.760;2024-03-08T06:38:01;7.00;;;3.03;;
77078;SDS011;66004;55.096;38.760;2024-03-08T06:40:27;8.13;;;2.97;;
77078;SDS011;66004;55.096;38.760;2024-03-08T06:42:53;8.95;;;4.13;;
77078;SDS011;66004;55.096;38.760;2024-03-08T06:45:18;10.38;;;5.60;;
77078;SDS011;66004;55.096;38.760;2024-03-08T06:47:48;9.10;;;4.53;;
77078;SDS011;66004;55.096;38.760;2024-03-08T06:50:14;9.13;;;3.28;;
77078;SDS011;66004;55.096;38.760;2024-03-08T06:52:43;7.82;;;2.90;;
77078;SDS011;66004;55.096;38.760;2024-03-08T06:55:09;11.18;;;5.15;;
77078;SDS011;66004;55.096;38.760;2024-03-08T06:57:41;11.25;;;5.30;;
77078;SDS011;66004;55.096;38.760;2024-03-08T07:00:07;11.20;;;5.38;;
77078;SDS011;66004;55.096;38.760;2024-03-08T07:02:38;13.38;;;5.47;;
77078;SDS011;66004;55.096;38.760;2024-03-08T07:05:05;8.30;;;3.67;;
77078;SDS011;66004;55.096;38.760;2024-03-08T07:07:31;10.48;;;3.40;;
77078;SDS011;66004;55.096;38.760;2024-03-08T07:09:58;8.18;;;4.38;;
77078;SDS011;66004;55.096;38.760;2024-03-08T07:12:24;8.40;;;3.38;;
77078;SDS011;66004;55.096;38.760;2024-03-08T07:14:51;10.13;;;3.85;;
77078;SDS011;66004;55.096;38.760;2024-03-08T07:17:16;9.00;;;4.03;;
77078;SDS011;66004;55.096;38.760;2024-03-08T07:19:42;11.30;;;4.32;;
77078;SDS011;66004;55.096;38.760;2024-03-08T07:22:07;9.68;;;3.53;;
77078;SDS011;66004;55.096;38.760;2024-03-08T07:24:36;9.90;;;3.72;;
77078;SDS011;66004;55.096;38.760;2024-03-08T07:27:04;8.95;;;4.65;;
77078;SDS011;66004;55.096;38.760;2024-03-08T07:29:30;12.90;;;5.93;;
77078;SDS011;66004;55.096;38.760;2024-03-08T07:31:56;13.75;;;6.32;;
77078;SDS011;66004;55.096;38.760;2024-03-08T07:34:42;12.38;;;5.93;;
77078;SDS011;66004;55.096;38.760;2024-03-08T07:37:07;15.63;;;5.20;;
77078;SDS011;66004;55.096;38.760;2024-03-08T07:39:36;15.20;;;7.05;;
77078;SDS011;66004;55.096;38.760;2024-03-08T07:42:03;13.05;;;7.35;;
77078;SDS011;66004;55.096;38.760;2024-03-08T07:44:28;5.45;;;3.10;;
77078;SDS011;66004;55.096;38.760;2024-03-08T07:46:56;16.17;;;5.97;;
77078;SDS011;66004;55.096;38.760;2024-03-08T07:49:21;11.82;;;5.22;;
77078;SDS011;66004;55.096;38.760;2024-03-08T07:51:47;10.63;;;4.47;;
77078;SDS011;66004;55.096;38.760;2024-03-08T07:54:14;13.18;;;5.97;;
77078;SDS011;66004;55.096;38.760;2024-03-08T07:56:40;12.02;;;4.63;;
77078;SDS011;66004;55.096;38.760;2024-03-08T07:59:05;11.60;;;5.00;;
77078;SDS011;66004;55.096;38.760;2024-03-08T08:01:31;6.40;;;3.33;;
77078;SDS011;66004;55.096;38.760;2024-03-08T08:03:58;11.98;;;5.45;;
77078;SDS011;66004;55.096;38.760;2024-03-08T08:06:24;8.60;;;4.88;;
77078;SDS011;66004;55.096;38.760;2024-03-08T08:08:50;9.18;;;4.80;;
77078;SDS011;66004;55.096;38.760;2024-03-08T08:11:16;12.27;;;6.13;;
77078;SDS011;66004;55.096;38.760;2024-03-08T08:13:42;10.40;;;5.75;;
77078;SDS011;66004;55.096;38.760;2024-03-08T08:16:08;12.80;;;7.07;;
77078;SDS011;66004;55.096;38.760;2024-03-08T08:18:35;11.82;;;5.82;;
77078;SDS011;66004;55.096;38.760;2024-03-08T08:21:04;12.70;;;6.20;;
77078;SDS011;66004;55.096;38.760;2024-03-08T08:23:33;8.52;;;4.20;;
77078;SDS011;66004;55.096;38.760;2024-03-08T08:25:59;12.93;;;5.95;;
77078;SDS011;66004;55.096;38.760;2024-03-08T08:28:25;8.25;;;3.90;;
77078;SDS011;66004;55.096;38.760;2024-03-08T08:30:50;11.40;;;6.13;;
77078;SDS011;66004;55.096;38.760;2024-03-08T08:33:16;14.27;;;6.35;;
77078;SDS011;66004;55.096;38.760;2024-03-08T08:35:42;11.27;;;6.00;;
77078;SDS011;66004;55.096;38.760;2024-03-08T08:38:07;12.77;;;7.25;;
77078;SDS011;66004;55.096;38.760;2024-03-08T08:40:33;11.00;;;4.95;;
77078;SDS011;66004;55.096;38.760;2024-03-08T08:43:01;9.70;;;4.63;;
77078;SDS011;66004;55.096;38.760;2024-03-08T08:45:29;11.27;;;6.15;;
77078;SDS011;66004;55.096;38.760;2024-03-08T08:47:56;13.05;;;6.28;;
77078;SDS011;66004;55.096;38.760;2024-03-08T08:50:22;13.70;;;7.28;;
77078;SDS011;66004;55.096;38.760;2024-03-08T08:52:53;11.15;;;5.63;;
77078;SDS011;66004;55.096;38.760;2024-03-08T08:55:19;10.88;;;5.80;;
77078;SDS011;66004;55.096;38.760;2024-03-08T08:57:51;10.73;;;5.47;;
77078;SDS011;66004;55.096;38.760;2024-03-08T09:00:20;9.85;;;3.78;;
77078;SDS011;66004;55.096;38.760;2024-03-08T09:02:46;15.63;;;7.93;;
77078;SDS011;66004;55.096;38.760;2024-03-08T09:05:13;13.48;;;7.25;;
77078;SDS011;66004;55.096;38.760;2024-03-08T09:07:43;14.38;;;7.95;;
77078;SDS011;66004;55.096;38.760;2024-03-08T09:10:13;15.23;;;8.27;;
77078;SDS011;66004;55.096;38.760;2024-03-08T09:12:39;19.60;;;10.70;;
77078;SDS011;66004;55.096;38.760;2024-03-08T09:15:05;16.20;;;7.85;;
77078;SDS011;66004;55.096;38.760;2024-03-08T09:17:33;13.93;;;6.60;;
77078;SDS011;66004;55.096;38.760;2024-03-08T09:19:59;9.38;;;4.47;;
77078;SDS011;66004;55.096;38.760;2024-03-08T09:22:25;14.32;;;6.45;;
77078;SDS011;66004;55.096;38.760;2024-03-08T09:24:51;17.17;;;8.50;;
77078;SDS011;66004;55.096;38.760;2024-03-08T09:27:16;15.60;;;8.25;;
77078;SDS011;66004;55.096;38.760;2024-03-08T09:29:43;14.98;;;8.30;;
77078;SDS011;66004;55.096;38.760;2024-03-08T09:32:09;15.48;;;6.03;;
77078;SDS011;66004;55.096;38.760;2024-03-08T09:34:36;12.82;;;6.30;;
77078;SDS011;66004;55.096;38.760;2024-03-08T09:37:02;14.65;;;6.15;;
77078;SDS011;66004;55.096;38.760;2024-03-08T09:39:29;13.52;;;5.65;;
77078;SDS011;66004;55.096;38.760;2024-03-08T09:41:55;11.50;;;5.10;;
77078;SDS011;66004;55.096;38.760;2024-03-08T09:44:21;13.32;;;5.35;;
77078;SDS011;66004;55.096;38.760;2024-03-08T09:46:48;12.38;;;5.40;;
77078;SDS011;66004;55.096;38.760;2024-03-08T09:49:18;11.40;;;6.25;;
77078;SDS011;66004;55.096;38.760;2024-03-08T09:51:44;15.13;;;5.80;;
77078;SDS011;66004;55.096;38.760;2024-03-08T09:54:11;10.48;;;5.05;;
77078;SDS011;66004;55.096;38.760;2024-03-08T09:56:38;11.63;;;6.97;;
77078;SDS011;66004;55.096;38.760;2024-03-08T09:59:06;12.27;;;5.07;;
77078;SDS011;66004;55.096;38.760;2024-03-08T10:01:51;11.38;;;5.07;;
77078;SDS011;66004;55.096;38.760;2024-03-08T10:04:24;16.75;;;8.80;;
77078;SDS011;66004;55.096;38.760;2024-03-08T10:06:51;15.85;;;6.80;;
77078;SDS011;66004;55.096;38.760;2024-03-08T10:09:17;14.88;;;6.45;;
77078;SDS011;66004;55.096;38.760;2024-03-08T10:11:43;14.07;;;6.43;;
77078;SDS011;66004;55.096;38.760;2024-03-08T10:14:09;15.07;;;7.25;;
77078;SDS011;66004;55.096;38.760;2024-03-08T10:16:35;12.23;;;6.50;;
77078;SDS011;66004;55.096;38.760;2024-03-08T10:19:01;11.93;;;6.20;;
77078;SDS011;66004;55.096;38.760;2024-03-08T10:21:26;11.27;;;6.25;;
77078;SDS011;66004;55.096;38.760;2024-03-08T10:23:52;13.45;;;5.55;;
77078;SDS011;66004;55.096;38.760;2024-03-08T10:26:18;12.65;;;6.68;;
77078;SDS011;66004;55.096;38.760;2024-03-08T10:28:50;12.60;;;5.50;;
77078;SDS011;66004;55.096;38.760;2024-03-08T10:31:17;14.07;;;7.20;;
77078;SDS011;66004;55.096;38.760;2024-03-08T10:33:44;15.02;;;8.50;;
77078;SDS011;66004;55.096;38.760;2024-03-08T10:38:37;12.40;;;5.95;;
77078;SDS011;66004;55.096;38.760;2024-03-08T10:41:05;16.13;;;9.18;;
77078;SDS011;66004;55.096;38.760;2024-03-08T10:43:56;14.13;;;7.38;;
77078;SDS011;66004;55.096;38.760;2024-03-08T10:49:31;13.90;;;8.63;;
77078;SDS011;66004;55.096;38.760;2024-03-08T10:52:05;11.07;;;6.03;;
77078;SDS011;66004;55.096;38.760;2024-03-08T10:54:36;16.02;;;9.18;;
77078;SDS011;66004;55.096;38.760;2024-03-08T10:57:12;13.38;;;6.20;;
77078;SDS011;66004;55.096;38.760;2024-03-08T10:59:40;14.57;;;7.38;;
77078;SDS011;66004;55.096;38.760;2024-03-08T11:02:09;16.02;;;8.85;;
77078;SDS011;66004;55.096;38.760;2024-03-08T11:04:37;13.98;;;6.75;;
77078;SDS011;66004;55.096;38.760;2024-03-08T11:07:03;16.55;;;7.95;;
77078;SDS011;66004;55.096;38.760;2024-03-08T11:09:36;16.42;;;8.70;;
77078;SDS011;66004;55.096;38.760;2024-03-08T11:14:49;11.70;;;7.53;;
77078;SDS011;66004;55.096;38.760;2024-03-08T11:17:16;13.80;;;7.25;;
77078;SDS011;66004;55.096;38.760;2024-03-08T11:19:46;13.20;;;6.22;;
77078;SDS011;66004;55.096;38.760;2024-03-08T11:22:23;15.20;;;7.40;;
77078;SDS011;66004;55.096;38.760;2024-03-08T11:24:58;13.10;;;5.90;;
77078;SDS011;66004;55.096;38.760;2024-03-08T11:27:52;14.55;;;7.28;;
77078;SDS011;66004;55.096;38.760;2024-03-08T11:30:30;11.77;;;5.68;;
77078;SDS011;66004;55.096;38.760;2024-03-08T11:33:02;12.60;;;6.45;;
77078;SDS011;66004;55.096;38.760;2024-03-08T11:35:28;16.75;;;7.88;;
77078;SDS011;66004;55.096;38.760;2024-03-08T11:37:54;15.07;;;7.30;;
77078;SDS011;66004;55.096;38.760;2024-03-08T11:40:23;13.15;;;5.93;;
77078;SDS011;66004;55.096;38.760;2024-03-08T11:42:49;15.63;;;7.90;;
77078;SDS011;66004;55.096;38.760;2024-03-08T11:45:16;14.52;;;6.88;;
77078;SDS011;66004;55.096;38.760;2024-03-08T11:47:48;12.93;;;7.25;;
77078;SDS011;66004;55.096;38.760;2024-03-08T11:50:14;13.85;;;7.43;;
77078;SDS011;66004;55.096;38.760;2024-03-08T11:52:40;16.67;;;7.13;;
77078;SDS011;66004;55.096;38.760;2024-03-08T11:55:08;14.05;;;6.00;;
77078;SDS011;66004;55.096;38.760;2024-03-08T11:57:33;21.48;;;8.23;;
77078;SDS011;66004;55.096;38.760;2024-03-08T11:59:59;16.00;;;8.20;;
77078;SDS011;66004;55.096;38.760;2024-03-08T12:05:00;13.07;;;6.30;;
77078;SDS011;66004;55.096;38.760;2024-03-08T12:07:28;12.80;;;6.63;;
77078;SDS011;66004;55.096;38.760;2024-03-08T12:12:43;11.07;;;5.32;;
77078;SDS011;66004;55.096;38.760;2024-03-08T12:15:09;14.65;;;7.55;;
77078;SDS011;66004;55.096;38.760;2024-03-08T12:17:36;15.18;;;7.55;;
77078;SDS011;66004;55.096;38.760;2024-03-08T12:20:15;14.80;;;8.20;;
77078;SDS011;66004;55.096;38.760;2024-03-08T12:22:46;12.77;;;6.88;;
77078;SDS011;66004;55.096;38.760;2024-03-08T12:25:14;14.13;;;5.75;;
77078;SDS011;66004;55.096;38.760;2024-03-08T12:27:40;12.52;;;7.18;;
77078;SDS011;66004;55.096;38.760;2024-03-08T12:32:58;14.55;;;7.95;;
77078;SDS011;66004;55.096;38.760;2024-03-08T12:35:26;16.70;;;8.35;;
77078;SDS011;66004;55.096;38.760;2024-03-08T12:37:53;16.13;;;6.78;;
77078;SDS011;66004;55.096;38.760;2024-03-08T12:40:25;12.02;;;5.95;;
77078;SDS011;66004;55.096;38.760;2024-03-08T12:42:52;16.45;;;7.45;;
77078;SDS011;66004;55.096;38.760;2024-03-08T12:45:18;14.52;;;6.63;;
77078;SDS011;66004;55.096;38.760;2024-03-08T12:47:43;18.70;;;6.63;;
77078;SDS011;66004;55.096;38.760;2024-03-08T12:50:09;16.30;;;8.95;;
77078;SDS011;66004;55.096;38.760;2024-03-08T12:52:36;13.45;;;7.03;;
77078;SDS011;66004;55.096;38.760;2024-03-08T12:55:02;15.57;;;6.65;;
77078;SDS011;66004;55.096;38.760;2024-03-08T12:57:27;14.23;;;7.30;;
77078;SDS011;66004;55.096;38.760;2024-03-08T12:59:53;14.82;;;9.13;;
77078;SDS011;66004;55.096;38.760;2024-03-08T13:02:19;16.20;;;8.70;;
77078;SDS011;66004;55.096;38.760;2024-03-08T13:04:46;16.20;;;6.82;;
77078;SDS011;66004;55.096;38.760;2024-03-08T13:07:20;12.25;;;6.07;;
77078;SDS011;66004;55.096;38.760;2024-03-08T13:09:53;15.55;;;8.85;;
77078;SDS011;66004;55.096;38.760;2024-03-08T13:12:20;14.52;;;7.75;;
77078;SDS011;66004;55.096;38.760;2024-03-08T13:14:49;13.80;;;6.10;;
77078;SDS011;66004;55.096;38.760;2024-03-08T13:17:15;11.63;;;5.53;;
77078;SDS011;66004;55.096;38.760;2024-03-08T13:19:41;15.60;;;7.45;;
77078;SDS011;66004;55.096;38.760;2024-03-08T13:22:09;16.63;;;6.93;;
77078;SDS011;66004;55.096;38.760;2024-03-08T13:24:41;15.75;;;6.88;;
77078;SDS011;66004;55.096;38.760;2024-03-08T13:27:07;12.88;;;7.10;;
77078;SDS011;66004;55.096;38.760;2024-03-08T13:29:45;17.50;;;7.63;;
77078;SDS011;66004;55.096;38.760;2024-03-08T13:32:15;15.77;;;8.27;;
77078;SDS011;66004;55.096;38.760;2024-03-08T13:34:43;14.55;;;7.30;;
77078;SDS011;66004;55.096;38.760;2024-03-08T13:37:12;15.65;;;8.80;;
77078;SDS011;66004;55.096;38.760;2024-03-08T13:39:40;12.48;;;6.70;;
77078;SDS011;66004;55.096;38.760;2024-03-08T13:42:09;12.57;;;7.30;;
77078;SDS011;66004;55.096;38.760;2024-03-08T13:44:38;16.27;;;7.03;;
77078;SDS011;66004;55.096;38.760;2024-03-08T13:47:13;19.60;;;9.52;;
77078;SDS011;66004;55.096;38.760;2024-03-08T13:49:39;14.82;;;6.82;;
77078;SDS011;66004;55.096;38.760;2024-03-08T13:52:05;18.75;;;8.60;;
77078;SDS011;66004;55.096;38.760;2024-03-08T13:54:30;16.63;;;6.90;;
77078;SDS011;66004;55.096;38.760;2024-03-08T13:56:57;16.63;;;7.95;;
77078;SDS011;66004;55.096;38.760;2024-03-08T13:59:23;16.30;;;6.80;;
77078;SDS011;66004;55.096;38.760;2024-03-08T14:04:14;13.90;;;6.45;;
77078;SDS011;66004;55.096;38.760;2024-03-08T14:06:43;14.93;;;6.72;;
77078;SDS011;66004;55.096;38.760;2024-03-08T14:09:11;17.50;;;8.32;;
77078;SDS011;66004;55.096;38.760;2024-03-08T14:11:42;14.80;;;7.00;;
77078;SDS011;66004;55.096;38.760;2024-03-08T14:14:09;13.70;;;8.00;;
77078;SDS011;66004;55.096;38.760;2024-03-08T14:16:37;14.43;;;6.75;;
77078;SDS011;66004;55.096;38.760;2024-03-08T14:19:04;19.85;;;7.70;;
77078;SDS011;66004;55.096;38.760;2024-03-08T14:21:31;19.35;;;8.15;;
77078;SDS011;66004;55.096;38.760;2024-03-08T14:23:57;16.70;;;7.65;;
77078;SDS011;66004;55.096;38.760;2024-03-08T14:26:22;15.27;;;7.63;;
77078;SDS011;66004;55.096;38.760;2024-03-08T14:28:48;18.33;;;8.68;;
77078;SDS011;66004;55.096;38.760;2024-03-08T14:31:16;17.25;;;6.43;;
77078;SDS011;66004;55.096;38.760;2024-03-08T14:33:44;14.20;;;5.90;;
77078;SDS011;66004;55.096;38.760;2024-03-08T14:36:14;14.85;;;7.40;;
77078;SDS011;66004;55.096;38.760;2024-03-08T14:38:44;13.82;;;6.95;;
77078;SDS011;66004;55.096;38.760;2024-03-08T14:41:12;12.32;;;6.07;;
77078;SDS011;66004;55.096;38.760;2024-03-08T14:43:39;14.95;;;6.50;;
77078;SDS011;66004;55.096;38.760;2024-03-08T14:46:10;16.05;;;7.68;;
77078;SDS011;66004;55.096;38.760;2024-03-08T14:48:42;15.10;;;7.55;;
77078;SDS011;66004;55.096;38.760;2024-03-08T14:51:12;14.63;;;7.35;;
77078;SDS011;66004;55.096;38.760;2024-03-08T14:53:42;12.15;;;6.20;;
77078;SDS011;66004;55.096;38.760;2024-03-08T14:56:10;13.77;;;6.47;;